Time;durP1;ratioP1;P1;durP2;ratioP2;P2;SDS_P1;SDS_P2;PMS_P1;PMS_P2;Temp;Humidity;BMP_temperature;BMP_pressure;BME280_temperature;BME280_humidity;BME280_pressure;Samples;Min_cycle;Max_cycle;Signal;HPM_P1;HPM_P2
2021/03/09 00:00:41;;;;;;;11.70;6.50;;;-0.10;99.90;;;;;;5070567;28;20438;-72
2021/03/09 00:03:08;;;;;;;9.87;6.77;;;-0.10;99.90;;;;;;5071319;28;20422;-71
2021/03/09 00:05:34;;;;;;;12.47;7.23;;;-0.10;99.90;;;;;;5071581;28;20841;-71
2021/03/09 00:08:01;;;;;;;9.30;6.57;;;-0.10;99.90;;;;;;5071165;28;20422;-71
2021/03/09 00:10:28;;;;;;;10.63;7.00;;;-0.20;99.90;;;;;;5071118;28;20431;-72
2021/03/09 00:12:55;;;;;;;11.20;6.87;;;-0.20;99.90;;;;;;5070780;28;20444;-71
2021/03/09 00:15:22;;;;;;;10.37;6.43;;;-0.30;99.90;;;;;;5065208;28;20446;-72
2021/03/09 00:17:48;;;;;;;9.23;5.83;;;-0.30;99.90;;;;;;5050830;28;20442;-71
2021/03/09 00:20:16;;;;;;;8.97;7.00;;;-0.30;99.90;;;;;;5051032;28;20423;-72
2021/03/09 00:22:43;;;;;;;10.10;6.23;;;-0.40;99.90;;;;;;5050718;28;20470;-72
2021/03/09 00:25:11;;;;;;;9.50;6.50;;;-0.40;99.90;;;;;;5050767;28;20423;-72
2021/03/09 00:27:38;;;;;;;8.57;6.10;;;-0.40;99.90;;;;;;5051040;28;20435;-71
2021/03/09 00:30:06;;;;;;;8.87;6.63;;;-0.40;99.90;;;;;;5050585;28;20450;-71
2021/03/09 00:32:32;;;;;;;12.40;6.53;;;-0.50;99.90;;;;;;5050485;28;20443;-71
2021/03/09 00:34:59;;;;;;;14.07;7.13;;;-0.50;99.90;;;;;;5054899;28;20461;-72
2021/03/09 00:37:26;;;;;;;10.40;6.97;;;-0.60;99.90;;;;;;5054727;28;20489;-72
2021/03/09 00:39:53;;;;;;;13.97;8.23;;;-0.60;99.90;;;;;;5054610;28;20457;-71
2021/03/09 00:42:20;;;;;;;11.53;6.87;;;-0.60;99.90;;;;;;5054568;28;20910;-72
2021/03/09 00:44:48;;;;;;;11.50;7.27;;;-0.60;99.90;;;;;;5055211;28;20435;-71
2021/03/09 00:47:15;;;;;;;12.30;7.23;;;-0.60;99.90;;;;;;5073590;28;20453;-71
2021/03/09 00:49:41;;;;;;;10.57;6.77;;;-0.60;99.90;;;;;;5074177;28;20510;-72
2021/03/09 00:52:08;;;;;;;11.30;6.63;;;-0.60;99.90;;;;;;5074417;28;20430;-72
2021/03/09 00:54:34;;;;;;;12.33;6.80;;;-0.70;99.90;;;;;;5074146;28;20438;-72
2021/03/09 00:57:01;;;;;;;8.80;6.07;;;-0.70;99.90;;;;;;5073488;28;20437;-71
2021/03/09 00:59:28;;;;;;;12.30;7.13;;;-0.70;99.90;;;;;;5074192;28;20506;-73
2021/03/09 01:01:55;;;;;;;11.33;6.93;;;-0.70;99.90;;;;;;5074001;28;20457;-72
2021/03/09 01:04:22;;;;;;;10.93;7.33;;;-0.80;99.90;;;;;;5074116;28;20422;-72
2021/03/09 01:06:48;;;;;;;13.10;6.70;;;-0.80;99.90;;;;;;5073598;28;20494;-72
2021/03/09 01:09:15;;;;;;;11.60;7.70;;;-0.80;99.90;;;;;;5073845;28;20526;-73
2021/03/09 01:11:42;;;;;;;9.70;6.90;;;-0.80;99.90;;;;;;5073979;28;20438;-72
2021/03/09 01:14:08;;;;;;;10.27;7.47;;;-0.80;99.90;;;;;;5073817;28;20474;-71
2021/03/09 01:16:35;;;;;;;11.80;7.97;;;-0.80;99.90;;;;;;5074007;28;20429;-71
2021/03/09 01:19:03;;;;;;;17.90;7.70;;;-0.90;99.90;;;;;;5073715;28;20446;-72
2021/03/09 01:21:29;;;;;;;12.00;7.07;;;-0.90;99.90;;;;;;5073120;28;20469;-71
2021/03/09 01:23:56;;;;;;;11.13;7.70;;;-0.90;99.90;;;;;;5073413;28;21028;-73
2021/03/09 01:26:22;;;;;;;14.73;8.67;;;-0.90;99.90;;;;;;5073724;28;20445;-71
2021/03/09 01:28:49;;;;;;;13.90;7.17;;;-0.90;99.90;;;;;;5073621;28;20460;-72
2021/03/09 01:31:16;;;;;;;12.17;7.93;;;-1.00;99.90;;;;;;5073384;28;20430;-72
2021/03/09 01:33:42;;;;;;;10.83;7.60;;;-1.00;99.90;;;;;;5073693;28;20430;-72
2021/03/09 01:36:10;;;;;;;11.63;7.57;;;-1.00;99.90;;;;;;5073268;28;20434;-71
2021/03/09 01:38:37;;;;;;;13.20;7.40;;;-1.00;99.90;;;;;;5073338;28;20458;-71
2021/03/09 01:41:06;;;;;;;20.77;8.10;;;-1.00;99.90;;;;;;5073255;28;20473;-72
2021/03/09 01:43:33;;;;;;;14.17;9.43;;;-1.00;99.90;;;;;;5073230;28;20768;-72
2021/03/09 01:46:01;;;;;;;12.93;7.37;;;-1.00;99.90;;;;;;5072686;28;20438;-72
2021/03/09 01:48:34;;;;;;;12.90;8.27;;;-1.00;99.90;;;;;;5072545;28;20480;-72
2021/03/09 01:51:00;;;;;;;13.40;9.10;;;-1.10;99.90;;;;;;5073005;28;20422;-72
2021/03/09 01:53:29;;;;;;;13.10;8.30;;;-1.10;99.90;;;;;;5072812;28;20434;-72
2021/03/09 01:55:57;;;;;;;13.00;8.30;;;-1.20;99.90;;;;;;5073092;28;20445;-72
2021/03/09 01:58:25;;;;;;;13.40;7.83;;;-1.20;99.90;;;;;;5073105;28;20462;-72
2021/03/09 02:00:51;;;;;;;20.00;9.50;;;-1.20;99.90;;;;;;5073232;28;20422;-72
2021/03/09 02:03:18;;;;;;;12.70;8.27;;;-1.20;99.90;;;;;;5073116;28;20430;-72
2021/03/09 02:05:45;;;;;;;15.90;7.80;;;-1.20;99.90;;;;;;5072618;28;20426;-72
2021/03/09 02:08:12;;;;;;;14.70;8.60;;;-1.30;99.90;;;;;;5072491;28;20869;-72
2021/03/09 02:10:39;;;;;;;12.70;8.27;;;-1.30;99.90;;;;;;5072981;28;20454;-73
2021/03/09 02:13:18;;;;;;;11.63;8.47;;;-1.40;99.90;;;;;;5073055;28;20480;-72
2021/03/09 02:15:54;;;;;;;15.20;9.70;;;-1.40;99.90;;;;;;5073156;28;20447;-73
2021/03/09 02:18:28;;;;;;;13.73;8.27;;;-1.40;99.90;;;;;;5066399;28;20968;-72
2021/03/09 02:21:27;;;;;;;15.30;8.50;;;-1.40;99.90;;;;;;5052606;28;20422;-72
2021/03/09 02:24:50;;;;;;;13.50;8.63;;;-1.40;99.90;;;;;;5051803;28;20431;-71
2021/03/09 02:27:40;;;;;;;12.57;7.50;;;-1.40;99.90;;;;;;4971247;28;20452;-71
2021/03/09 02:30:17;;;;;;;9.73;7.80;;;-1.40;99.90;;;;;;4971178;28;20451;-71
2021/03/09 02:32:57;;;;;;;11.97;9.20;;;-1.40;99.90;;;;;;5038003;28;20836;-72
2021/03/09 02:35:26;;;;;;;14.90;9.93;;;-1.50;99.90;;;;;;5052337;28;20411;-71
2021/03/09 02:37:58;;;;;;;16.00;8.77;;;-1.50;99.90;;;;;;5051662;28;20881;-72
2021/03/09 02:40:26;;;;;;;14.13;9.77;;;-1.50;99.90;;;;;;5052393;28;20469;-72
2021/03/09 02:42:58;;;;;;;15.60;9.47;;;-1.50;99.90;;;;;;5052049;28;21097;-72
2021/03/09 02:45:26;;;;;;;12.97;9.07;;;-1.50;99.90;;;;;;5052259;28;20441;-72
2021/03/09 02:47:55;;;;;;;16.63;8.70;;;-1.50;99.90;;;;;;5053564;28;20820;-71
2021/03/09 02:50:25;;;;;;;14.40;8.37;;;-1.60;99.90;;;;;;5072077;28;20560;-72
2021/03/09 02:52:57;;;;;;;10.13;8.20;;;-1.60;99.90;;;;;;5071499;28;20429;-72
2021/03/09 02:55:25;;;;;;;13.00;8.70;;;-1.60;99.90;;;;;;5072004;28;20424;-71
2021/03/09 02:57:53;;;;;;;12.33;8.40;;;-1.60;99.90;;;;;;5071804;28;20445;-71
2021/03/09 03:00:21;;;;;;;21.07;9.83;;;-1.50;99.90;;;;;;5071547;28;20432;-71
2021/03/09 03:02:49;;;;;;;11.93;8.77;;;-1.50;99.90;;;;;;5071180;28;20466;-71
2021/03/09 03:05:16;;;;;;;15.63;8.53;;;-1.60;99.90;;;;;;5071759;28;20442;-71
2021/03/09 03:07:43;;;;;;;11.47;8.20;;;-1.60;99.90;;;;;;5071475;28;20426;-72
2021/03/09 03:10:14;;;;;;;12.47;8.50;;;-1.60;99.90;;;;;;5071428;28;20504;-72
2021/03/09 03:12:42;;;;;;;12.83;9.17;;;-1.70;99.90;;;;;;5071619;28;20426;-72
2021/03/09 03:15:13;;;;;;;11.43;8.23;;;-1.70;99.90;;;;;;5071667;28;20445;-72
2021/03/09 03:17:42;;;;;;;15.77;9.40;;;-1.70;99.90;;;;;;5071233;28;21327;-71
2021/03/09 03:20:14;;;;;;;14.87;10.30;;;-1.60;99.90;;;;;;5071533;28;21018;-71
2021/03/09 03:22:42;;;;;;;14.80;9.60;;;-1.60;99.90;;;;;;5071056;28;20466;-72
2021/03/09 03:25:10;;;;;;;12.67;7.60;;;-1.60;99.90;;;;;;5051417;28;20446;-72
2021/03/09 03:27:40;;;;;;;13.50;9.50;;;-1.60;99.90;;;;;;5051361;28;20422;-72
2021/03/09 03:30:09;;;;;;;13.73;9.10;;;-1.60;99.90;;;;;;5051460;28;20591;-70
2021/03/09 03:32:36;;;;;;;21.60;9.40;;;-1.60;99.90;;;;;;5051598;28;20438;-72
2021/03/09 03:35:04;;;;;;;12.17;9.30;;;-1.60;99.90;;;;;;5051137;28;20449;-72
2021/03/09 03:37:32;;;;;;;17.20;10.70;;;-1.60;99.90;;;;;;5051519;28;20803;-72
2021/03/09 03:39:59;;;;;;;12.70;10.10;;;-1.70;99.90;;;;;;5051119;28;21153;-70
2021/03/09 03:42:26;;;;;;;15.20;10.30;;;-1.70;99.90;;;;;;5051254;28;20547;-72
2021/03/09 03:44:52;;;;;;;16.40;10.53;;;-1.80;99.90;;;;;;5051119;28;20925;-70
2021/03/09 03:47:19;;;;;;;11.67;9.60;;;-1.80;99.90;;;;;;5051072;28;20489;-71
2021/03/09 03:49:46;;;;;;;15.97;10.53;;;-1.80;99.90;;;;;;5084807;28;20640;-72
2021/03/09 03:52:23;;;;;;;20.50;8.50;;;-1.80;99.90;;;;;;5091291;28;20786;-70
2021/03/09 03:54:55;;;;;;;15.37;9.33;;;-1.80;99.90;;;;;;5091566;28;20929;-72
2021/03/09 03:57:30;;;;;;;18.63;11.63;;;-1.90;99.90;;;;;;5091516;28;20414;-71
2021/03/09 04:00:00;;;;;;;12.03;9.10;;;-1.90;99.90;;;;;;5091106;28;20443;-72
2021/03/09 04:02:29;;;;;;;14.17;10.37;;;-2.00;99.90;;;;;;5091655;28;20817;-71
2021/03/09 04:04:59;;;;;;;14.80;10.37;;;-2.00;99.90;;;;;;5091132;28;20457;-71
2021/03/09 04:07:28;;;;;;;19.27;11.00;;;-2.00;99.90;;;;;;5090662;28;20949;-71
2021/03/09 04:09:56;;;;;;;15.97;9.97;;;-2.00;99.90;;;;;;5095365;28;20502;-72
2021/03/09 04:12:26;;;;;;;18.83;10.23;;;-2.10;99.90;;;;;;5095204;28;20433;-72
2021/03/09 04:14:53;;;;;;;18.37;10.80;;;-2.10;99.90;;;;;;5095640;28;20460;-71
2021/03/09 04:17:21;;;;;;;15.40;9.80;;;-2.10;99.90;;;;;;5095303;28;20453;-71
2021/03/09 04:19:48;;;;;;;15.50;10.10;;;-2.10;99.90;;;;;;5095348;28;20461;-72
2021/03/09 04:22:17;;;;;;;17.77;10.13;;;-2.10;99.90;;;;;;5095393;28;20465;-72
2021/03/09 04:24:46;;;;;;;13.53;9.70;;;-2.00;99.90;;;;;;5095038;28;20432;-72
2021/03/09 04:27:21;;;;;;;13.83;10.20;;;-2.00;99.90;;;;;;5063069;28;20463;-71
2021/03/09 04:29:50;;;;;;;18.27;10.00;;;-2.00;99.90;;;;;;5055394;28;20517;-71
2021/03/09 04:32:18;;;;;;;16.57;10.93;;;-2.00;99.90;;;;;;5054819;28;21098;-71
2021/03/09 04:34:46;;;;;;;18.20;11.40;;;-2.00;99.90;;;;;;5054818;28;20800;-71
2021/03/09 04:37:13;;;;;;;18.00;11.27;;;-2.00;99.90;;;;;;5054660;28;20492;-71
2021/03/09 04:39:41;;;;;;;18.63;11.80;;;-2.10;99.90;;;;;;5054716;28;20458;-71
2021/03/09 04:42:08;;;;;;;19.40;11.60;;;-2.10;99.90;;;;;;5069194;28;20523;-71
2021/03/09 04:44:36;;;;;;;18.40;12.70;;;-2.20;99.90;;;;;;5074599;28;20422;-72
2021/03/09 04:47:04;;;;;;;19.20;12.10;;;-2.10;99.90;;;;;;5074619;28;20434;-71
2021/03/09 04:49:33;;;;;;;21.87;12.20;;;-2.10;99.90;;;;;;5074483;28;20457;-71
2021/03/09 04:52:00;;;;;;;16.50;11.67;;;-2.10;99.90;;;;;;5074484;28;20438;-71
2021/03/09 04:54:27;;;;;;;23.83;12.00;;;-2.10;99.90;;;;;;5089088;28;20475;-71
2021/03/09 04:56:54;;;;;;;15.67;10.93;;;-2.10;99.90;;;;;;5094899;28;20435;-71
2021/03/09 04:59:21;;;;;;;17.20;10.87;;;-2.20;99.90;;;;;;5094665;28;20528;-71
2021/03/09 05:01:48;;;;;;;16.77;11.23;;;-2.20;99.90;;;;;;5082588;28;20482;-72
2021/03/09 05:04:15;;;;;;;16.27;10.60;;;-2.20;99.90;;;;;;5074188;28;20464;-73
2021/03/09 05:06:42;;;;;;;18.23;11.37;;;-2.20;99.90;;;;;;5074254;28;20426;-71
2021/03/09 05:09:08;;;;;;;17.77;12.23;;;-2.20;99.90;;;;;;5074530;28;20776;-72
2021/03/09 05:11:35;;;;;;;20.93;13.07;;;-2.20;99.90;;;;;;5074746;28;20799;-71
2021/03/09 05:14:01;;;;;;;20.20;13.00;;;-2.30;99.90;;;;;;5074979;28;20495;-72
2021/03/09 05:16:28;;;;;;;17.80;12.87;;;-2.30;99.90;;;;;;5074938;28;20791;-71
2021/03/09 05:18:56;;;;;;;23.47;11.67;;;-2.30;99.90;;;;;;5087118;28;20825;-71
2021/03/09 05:21:22;;;;;;;19.30;12.43;;;-2.30;99.90;;;;;;5094057;28;20783;-71
2021/03/09 05:23:49;;;;;;;22.57;13.67;;;-2.30;99.90;;;;;;5094436;28;20934;-71
2021/03/09 05:26:16;;;;;;;18.27;10.73;;;-2.30;99.90;;;;;;5094747;28;20428;-72
2021/03/09 05:28:42;;;;;;;22.53;16.77;;;-2.30;99.90;;;;;;5094333;28;20478;-72
2021/03/09 05:31:09;;;;;;;24.30;15.20;;;-2.30;99.90;;;;;;5094893;28;20459;-72
2021/03/09 05:33:36;;;;;;;20.87;13.30;;;-2.30;99.90;;;;;;5094471;28;20429;-70
2021/03/09 05:36:04;;;;;;;28.63;16.90;;;-2.30;99.90;;;;;;5094436;28;21204;-71
2021/03/09 05:38:30;;;;;;;22.27;14.60;;;-2.30;99.90;;;;;;5094062;28;20468;-67
2021/03/09 05:40:59;;;;;;;26.33;15.63;;;-2.30;99.90;;;;;;5093440;28;20417;-69
2021/03/09 05:43:26;;;;;;;22.47;14.60;;;-2.10;99.90;;;;;;5092996;28;20530;-69
2021/03/09 05:45:56;;;;;;;27.90;15.47;;;-1.90;99.90;;;;;;5093470;28;20440;-69
2021/03/09 05:48:22;;;;;;;24.83;15.90;;;-1.90;99.90;;;;;;5093056;28;21029;-69
2021/03/09 05:50:49;;;;;;;29.07;16.60;;;-1.90;99.90;;;;;;5092976;28;20444;-69
2021/03/09 05:53:16;;;;;;;23.77;14.00;;;-1.80;99.90;;;;;;5086574;28;20860;-68
2021/03/09 05:55:43;;;;;;;22.90;14.47;;;-1.80;99.90;;;;;;5072832;28;20897;-69
2021/03/09 05:58:11;;;;;;;20.40;14.10;;;-1.80;99.90;;;;;;5072674;28;20835;-68
2021/03/09 06:00:38;;;;;;;24.53;14.80;;;-1.80;99.90;;;;;;5072560;28;20448;-68
2021/03/09 06:03:05;;;;;;;21.33;14.27;;;-1.70;99.90;;;;;;5072284;28;20546;-69
2021/03/09 06:05:32;;;;;;;22.13;14.10;;;-1.70;99.90;;;;;;5072753;28;20849;-68
2021/03/09 06:07:59;;;;;;;21.20;13.60;;;-1.70;99.90;;;;;;5072519;28;20507;-68
2021/03/09 06:10:27;;;;;;;26.30;14.27;;;-1.80;99.90;;;;;;5072566;28;20439;-69
2021/03/09 06:12:53;;;;;;;30.63;14.80;;;-1.80;99.90;;;;;;5082173;28;20433;-68
2021/03/09 06:15:20;;;;;;;25.70;14.93;;;-1.80;99.90;;;;;;5082643;28;20463;-68
2021/03/09 06:17:54;;;;;;;24.50;14.03;;;-1.70;99.90;;;;;;5072615;28;20483;-68
2021/03/09 06:20:24;;;;;;;22.20;13.73;;;-1.70;99.90;;;;;;5071600;28;20446;-69
2021/03/09 06:22:52;;;;;;;24.97;15.43;;;-1.70;99.90;;;;;;5071969;28;20472;-68
2021/03/09 06:25:20;;;;;;;26.83;14.77;;;-1.80;99.90;;;;;;5071948;28;20446;-68
2021/03/09 06:27:48;;;;;;;27.23;16.63;;;-1.80;99.90;;;;;;5072009;28;20438;-68
2021/03/09 06:30:28;;;;;;;25.90;15.00;;;-1.80;99.90;;;;;;5080029;28;20425;-68
2021/03/09 06:32:55;;;;;;;26.03;15.37;;;-1.80;99.90;;;;;;5082593;28;20417;-68
2021/03/09 06:35:34;;;;;;;28.50;15.37;;;-1.80;99.90;;;;;;5079789;28;20517;-68
2021/03/09 06:38:22;;;;;;;30.53;17.47;;;-1.70;99.90;;;;;;5071110;28;20430;-68
2021/03/09 06:41:10;;;;;;;25.43;15.20;;;-1.70;99.90;;;;;;5071864;28;20430;-68
2021/03/09 06:43:38;;;;;;;26.87;15.70;;;-1.60;99.90;;;;;;5071691;28;20476;-68
2021/03/09 06:46:16;;;;;;;28.60;16.17;;;-1.60;99.90;;;;;;5071769;28;20931;-68
2021/03/09 06:48:44;;;;;;;29.50;16.93;;;-1.60;99.90;;;;;;5070894;28;20827;-68
2021/03/09 06:51:29;;;;;;;31.73;17.60;;;-1.60;99.90;;;;;;5071634;28;20505;-68
2021/03/09 06:54:04;;;;;;;45.80;17.80;;;-1.60;99.90;;;;;;5070645;28;20453;-68
2021/03/09 06:56:32;;;;;;;35.27;16.63;;;-1.60;99.90;;;;;;5071745;28;20775;-68
2021/03/09 06:59:18;;;;;;;30.37;17.40;;;-1.60;99.90;;;;;;5071242;28;20468;-68
2021/03/09 07:02:01;;;;;;;36.77;17.00;;;-1.50;99.90;;;;;;5070603;28;20480;-67
2021/03/09 07:04:28;;;;;;;26.23;15.77;;;-1.40;99.90;;;;;;5071420;28;20442;-69
2021/03/09 07:06:57;;;;;;;34.50;16.80;;;-1.30;99.90;;;;;;5071346;28;20442;-68
2021/03/09 07:09:24;;;;;;;27.17;17.83;;;-1.30;99.90;;;;;;5070922;28;20874;-67
2021/03/09 07:11:51;;;;;;;29.33;16.70;;;-1.20;99.90;;;;;;5071086;28;20439;-68
2021/03/09 07:14:19;;;;;;;37.60;18.47;;;-1.10;99.90;;;;;;5071272;28;20437;-67
2021/03/09 07:16:49;;;;;;;31.00;17.13;;;-1.00;99.90;;;;;;5071300;28;20535;-68
2021/03/09 07:19:23;;;;;;;34.27;16.50;;;-1.00;99.90;;;;;;5071017;28;20452;-67
2021/03/09 07:21:50;;;;;;;27.20;16.00;;;-1.00;99.90;;;;;;5069862;28;20477;-68
2021/03/09 07:24:20;;;;;;;32.27;15.73;;;-1.10;99.90;;;;;;5071043;28;20451;-68
2021/03/09 07:26:52;;;;;;;28.43;16.00;;;-1.00;99.90;;;;;;5071129;28;20439;-68
2021/03/09 07:29:22;;;;;;;31.33;15.33;;;-1.00;99.90;;;;;;5071077;28;20438;-68
2021/03/09 07:31:52;;;;;;;35.40;19.77;;;-0.90;99.90;;;;;;5070898;28;20430;-68
2021/03/09 07:34:20;;;;;;;27.27;17.27;;;-0.80;99.90;;;;;;5070760;28;20498;-67
2021/03/09 07:36:48;;;;;;;24.70;14.37;;;-0.80;99.90;;;;;;5070731;28;20434;-68
2021/03/09 07:39:17;;;;;;;28.77;17.07;;;-0.70;99.90;;;;;;5070883;28;20445;-67
2021/03/09 07:41:44;;;;;;;31.83;17.70;;;-0.70;99.90;;;;;;5070684;28;20694;-68
2021/03/09 07:44:11;;;;;;;35.03;16.13;;;-0.60;99.90;;;;;;5070868;28;20956;-68
2021/03/09 07:46:39;;;;;;;28.13;16.87;;;-0.60;99.90;;;;;;5090677;28;20854;-67
2021/03/09 07:49:06;;;;;;;30.30;18.43;;;-0.70;99.90;;;;;;5090795;28;20457;-68
2021/03/09 07:51:32;;;;;;;30.33;17.10;;;-0.60;99.90;;;;;;5071768;28;20442;-67
2021/03/09 07:54:10;;;;;;;55.00;29.47;;;-0.50;99.90;;;;;;5070601;28;21058;-68
2021/03/09 07:56:36;;;;;;;42.93;22.40;;;-0.50;99.90;;;;;;5070227;28;20422;-69
2021/03/09 07:59:07;;;;;;;37.90;19.43;;;-0.50;99.90;;;;;;5069398;28;20529;-68
2021/03/09 08:01:46;;;;;;;22.77;15.30;;;-0.50;99.90;;;;;;5070644;28;20462;-68
2021/03/09 08:04:12;;;;;;;31.47;18.27;;;-0.40;99.90;;;;;;5090807;28;20526;-69
2021/03/09 08:06:44;;;;;;;24.40;16.67;;;-0.30;99.90;;;;;;5090930;28;20436;-68
2021/03/09 08:09:35;;;;;;;27.43;17.27;;;-0.20;99.90;;;;;;5090714;28;20463;-69
2021/03/09 08:12:03;;;;;;;36.10;16.73;;;-0.20;99.90;;;;;;5090378;28;20436;-68
2021/03/09 08:14:29;;;;;;;27.83;17.03;;;0.00;99.90;;;;;;5090420;28;20520;-69
2021/03/09 08:16:57;;;;;;;30.63;18.47;;;-0.10;99.90;;;;;;5090352;28;20445;-68
2021/03/09 08:19:45;;;;;;;27.00;17.20;;;0.00;99.90;;;;;;5090583;28;20484;-68
2021/03/09 08:22:12;;;;;;;27.70;17.40;;;0.10;99.90;;;;;;5089946;28;20471;-68
2021/03/09 08:24:53;;;;;;;29.57;17.03;;;0.20;99.90;;;;;;5090328;28;20436;-68
2021/03/09 08:27:39;;;;;;;31.10;18.77;;;0.20;99.90;;;;;;5090629;28;20421;-68
2021/03/09 08:30:31;;;;;;;29.63;18.27;;;0.30;99.90;;;;;;5050122;28;20477;-68
2021/03/09 08:33:33;;;;;;;27.57;16.30;;;0.40;99.90;;;;;;5030734;28;20439;-68
2021/03/09 08:36:00;;;;;;;36.10;19.63;;;0.30;99.90;;;;;;5050195;28;20832;-69
2021/03/09 08:38:28;;;;;;;30.40;16.67;;;0.30;99.90;;;;;;5057221;28;20555;-68
2021/03/09 08:41:12;;;;;;;29.10;17.00;;;0.40;99.90;;;;;;5075660;28;20438;-68
2021/03/09 08:43:43;;;;;;;28.50;16.30;;;0.30;99.90;;;;;;5069949;28;20473;-69
2021/03/09 08:46:12;;;;;;;27.93;16.43;;;0.50;99.90;;;;;;5070086;28;20418;-68
2021/03/09 08:48:54;;;;;;;34.23;17.90;;;0.50;99.90;;;;;;5069810;28;20487;-69
2021/03/09 08:51:49;;;;;;;28.80;16.43;;;0.60;99.90;;;;;;5069991;28;20486;-69
2021/03/09 08:54:32;;;;;;;23.87;15.80;;;0.50;99.90;;;;;;5070220;28;20437;-69
2021/03/09 08:57:00;;;;;;;26.03;16.37;;;0.50;99.90;;;;;;5073824;28;20422;-69
2021/03/09 08:59:29;;;;;;;30.30;17.13;;;0.60;99.90;;;;;;5072912;28;20454;-68
2021/03/09 09:02:04;;;;;;;25.17;16.67;;;0.70;99.90;;;;;;5073240;28;20472;-68
2021/03/09 09:04:32;;;;;;;34.33;17.77;;;0.80;99.90;;;;;;5073162;28;20449;-68
2021/03/09 09:06:59;;;;;;;41.50;18.60;;;0.90;99.90;;;;;;5073453;28;20529;-68
2021/03/09 09:09:37;;;;;;;28.20;16.80;;;1.00;99.90;;;;;;5073273;28;20818;-68
2021/03/09 09:12:20;;;;;;;25.60;15.53;;;1.00;99.90;;;;;;5073256;28;20623;-68
2021/03/09 09:14:48;;;;;;;32.50;17.33;;;1.00;99.90;;;;;;5073474;28;20429;-69
2021/03/09 09:17:18;;;;;;;32.63;17.97;;;1.10;99.90;;;;;;5073381;28;20908;-68
2021/03/09 09:19:56;;;;;;;33.03;18.10;;;1.20;99.90;;;;;;5073093;28;20972;-69
2021/03/09 09:22:25;;;;;;;28.77;17.00;;;1.30;99.90;;;;;;5073080;28;20478;-68
2021/03/09 09:24:56;;;;;;;33.10;18.00;;;1.40;99.90;;;;;;5072325;28;20475;-69
2021/03/09 09:27:24;;;;;;;49.03;26.33;;;1.40;99.90;;;;;;5073589;28;20450;-68
2021/03/09 09:29:55;;;;;;;38.63;20.40;;;1.50;99.90;;;;;;5073154;28;20449;-68
2021/03/09 09:32:23;;;;;;;34.10;19.07;;;1.60;99.90;;;;;;5072846;28;20491;-68
2021/03/09 09:34:59;;;;;;;31.43;17.70;;;1.70;99.90;;;;;;5073078;28;20460;-68
2021/03/09 09:37:28;;;;;;;39.63;20.73;;;1.80;99.90;;;;;;5072910;28;20445;-69
2021/03/09 09:40:03;;;;;;;36.67;21.17;;;1.80;99.90;;;;;;5088501;28;20445;-68
2021/03/09 09:42:29;;;;;;;37.70;20.80;;;2.00;99.90;;;;;;5092421;28;21001;-68
2021/03/09 09:44:56;;;;;;;43.10;23.60;;;2.10;99.90;;;;;;5093131;28;20843;-69
2021/03/09 09:47:24;;;;;;;47.53;22.20;;;2.20;99.90;;;;;;5092759;28;20421;-68
2021/03/09 09:49:51;;;;;;;34.87;19.17;;;2.30;99.90;;;;;;5072146;28;20453;-68
2021/03/09 09:52:47;;;;;;;;;;;;;;;;;;;;;
2021/03/09 09:55:20;;;;;;;41.43;22.20;;;2.40;99.90;;;;;;5068324;28;21006;-68
2021/03/09 09:57:50;;;;;;;34.77;19.50;;;2.50;99.90;;;;;;5072762;28;20792;-69
2021/03/09 10:00:19;;;;;;;41.60;24.73;;;2.50;99.90;;;;;;5072034;28;20448;-68
2021/03/09 10:03:04;;;;;;;50.93;25.47;;;2.50;99.90;;;;;;5071881;28;20849;-69
2021/03/09 10:05:31;;;;;;;42.97;21.40;;;2.60;99.90;;;;;;5071773;28;20434;-68
2021/03/09 10:07:59;;;;;;;33.00;19.97;;;2.60;99.90;;;;;;5071768;28;20468;-68
2021/03/09 10:10:42;;;;;;;42.50;20.97;;;2.60;99.90;;;;;;5073401;28;20792;-68
2021/03/09 10:13:23;;;;;;;33.40;20.50;;;2.70;99.90;;;;;;5072302;28;21028;-67
2021/03/09 10:15:51;;;;;;;52.70;26.87;;;2.80;99.90;;;;;;5072163;28;20426;-67
2021/03/09 10:18:25;;;;;;;42.33;21.53;;;2.90;99.90;;;;;;5071936;28;20992;-67
2021/03/09 10:21:00;;;;;;;34.33;18.50;;;3.20;99.90;;;;;;5071876;28;20429;-67
2021/03/09 10:23:27;;;;;;;34.03;19.90;;;3.30;99.90;;;;;;5071820;28;20479;-67
2021/03/09 10:25:58;;;;;;;38.07;19.47;;;3.50;99.90;;;;;;5071875;28;20440;-67
2021/03/09 10:28:26;;;;;;;36.73;22.30;;;3.30;99.90;;;;;;5072099;28;20488;-67
2021/03/09 10:30:53;;;;;;;35.13;18.97;;;3.50;99.90;;;;;;5071959;28;20820;-67
2021/03/09 10:33:20;;;;;;;39.50;20.70;;;3.60;99.90;;;;;;5071833;28;20819;-67
2021/03/09 10:36:04;;;;;;;37.50;19.70;;;3.70;99.90;;;;;;5071668;28;20477;-68
2021/03/09 10:38:31;;;;;;;35.87;20.33;;;3.70;99.90;;;;;;5075778;28;20460;-67
2021/03/09 10:40:58;;;;;;;34.77;19.63;;;3.90;99.90;;;;;;5091855;28;20425;-67
2021/03/09 10:43:44;;;;;;;31.23;17.80;;;4.00;99.90;;;;;;5082308;28;20483;-67
2021/03/09 10:46:12;;;;;;;28.87;17.30;;;3.90;99.90;;;;;;5071464;28;20426;-67
2021/03/09 10:48:39;;;;;;;29.23;18.03;;;4.00;99.90;;;;;;5070815;28;20488;-66
2021/03/09 10:51:16;;;;;;;30.03;18.30;;;4.10;99.90;;;;;;5071540;28;20926;-67
2021/03/09 10:53:43;;;;;;;32.60;17.50;;;4.10;99.90;;;;;;5071361;28;20441;-67
2021/03/09 10:56:10;;;;;;;30.83;19.27;;;4.30;99.90;;;;;;5071343;28;20454;-67
2021/03/09 10:58:37;;;;;;;31.27;19.20;;;4.50;99.90;;;;;;5070786;28;20442;-67
2021/03/09 11:01:04;;;;;;;31.40;19.90;;;4.80;99.90;;;;;;5071196;28;20446;-67
2021/03/09 11:03:30;;;;;;;32.40;18.30;;;5.10;99.90;;;;;;5069972;28;20475;-67
2021/03/09 11:05:57;;;;;;;28.97;17.80;;;5.40;99.90;;;;;;5071344;28;20441;-67
2021/03/09 11:08:24;;;;;;;29.30;19.63;;;5.50;99.90;;;;;;5071164;28;20807;-67
2021/03/09 11:10:52;;;;;;;32.60;18.23;;;5.70;99.90;;;;;;5069403;28;20422;-67
2021/03/09 11:13:19;;;;;;;31.77;18.60;;;6.00;99.90;;;;;;5068555;28;20926;-67
2021/03/09 11:15:46;;;;;;;29.47;19.63;;;6.10;99.90;;;;;;5071693;28;20462;-66
2021/03/09 11:18:13;;;;;;;28.93;18.80;;;6.20;99.90;;;;;;5070099;28;20545;-67
2021/03/09 11:20:42;;;;;;;27.87;16.30;;;6.60;99.90;;;;;;5075295;28;20438;-67
2021/03/09 11:23:08;;;;;;;28.40;17.57;;;6.70;99.90;;;;;;5090826;28;20462;-66
2021/03/09 11:25:36;;;;;;;27.17;18.67;;;6.60;99.90;;;;;;5075931;28;20496;-67
2021/03/09 11:28:05;;;;;;;29.77;18.73;;;6.60;99.90;;;;;;5090954;28;20433;-66
2021/03/09 11:30:32;;;;;;;33.43;18.57;;;6.60;99.90;;;;;;5091086;28;20434;-66
2021/03/09 11:32:59;;;;;;;35.53;18.37;;;6.80;99.90;;;;;;5090891;28;20430;-66
2021/03/09 11:35:26;;;;;;;28.23;18.40;;;6.80;99.90;;;;;;5091243;28;20440;-67
2021/03/09 11:37:55;;;;;;;26.23;16.90;;;6.70;99.90;;;;;;5088532;28;20486;-66
2021/03/09 11:40:23;;;;;;;32.97;20.10;;;6.70;99.90;;;;;;5070519;28;20464;-67
2021/03/09 11:42:49;;;;;;;33.10;18.70;;;6.90;99.90;;;;;;5070656;28;20468;-66
2021/03/09 11:45:17;;;;;;;31.60;17.87;;;6.80;99.90;;;;;;5070715;28;20965;-67
2021/03/09 11:48:11;;;;;;;28.50;17.93;;;6.80;99.90;;;;;;5070576;28;20435;-67
2021/03/09 11:50:38;;;;;;;32.23;18.43;;;7.00;99.90;;;;;;5070355;28;20434;-67
2021/03/09 11:53:07;;;;;;;27.73;16.37;;;7.10;99.90;;;;;;5070405;28;20432;-66
2021/03/09 11:55:36;;;;;;;26.20;15.87;;;7.10;99.90;;;;;;5070120;28;20511;-67
2021/03/09 11:58:02;;;;;;;27.83;16.90;;;7.20;99.90;;;;;;5070581;28;20448;-67
2021/03/09 12:00:31;;;;;;;27.83;17.83;;;7.40;99.90;;;;;;5069546;28;20977;-67
2021/03/09 12:02:58;;;;;;;24.77;15.50;;;7.40;99.90;;;;;;5070196;28;20471;-67
2021/03/09 12:05:25;;;;;;;24.47;17.93;;;7.40;99.90;;;;;;5070040;28;20434;-66
2021/03/09 12:07:54;;;;;;;25.00;17.63;;;7.60;99.90;;;;;;5073086;28;20431;-67
2021/03/09 12:10:21;;;;;;;24.70;16.13;;;7.60;99.90;;;;;;5070463;28;20440;-67
2021/03/09 12:12:50;;;;;;;24.57;16.23;;;7.60;99.90;;;;;;5070101;28;20440;-66
2021/03/09 12:15:20;;;;;;;25.67;17.67;;;7.40;99.90;;;;;;5079914;28;20423;-66
2021/03/09 12:17:55;;;;;;;22.40;16.07;;;7.20;99.90;;;;;;5090339;28;20448;-67
2021/03/09 12:20:24;;;;;;;20.83;15.87;;;7.10;99.90;;;;;;5090442;28;20426;-67
2021/03/09 12:22:51;;;;;;;22.10;15.33;;;7.10;99.90;;;;;;5090292;28;20833;-66
2021/03/09 12:25:17;;;;;;;22.70;15.10;;;7.00;99.90;;;;;;5090514;28;20462;-67
2021/03/09 12:27:45;;;;;;;26.67;13.83;;;7.20;99.90;;;;;;5090401;28;20449;-66
2021/03/09 12:30:15;;;;;;;25.03;14.80;;;7.30;99.90;;;;;;5092325;28;20444;-65
2021/03/09 12:32:42;;;;;;;23.37;15.53;;;7.40;99.90;;;;;;5073988;28;20451;-67
2021/03/09 12:35:11;;;;;;;17.53;13.13;;;7.60;99.90;;;;;;5073480;28;20505;-66
2021/03/09 12:37:38;;;;;;;23.50;13.60;;;7.70;99.90;;;;;;5074050;28;20425;-67
2021/03/09 12:40:07;;;;;;;13.40;11.00;;;7.80;98.00;;;;;;5073983;28;20445;-67
2021/03/09 12:42:34;;;;;;;25.40;13.47;;;7.90;96.10;;;;;;5073583;28;20532;-67
2021/03/09 12:45:01;;;;;;;21.20;15.20;;;8.20;94.30;;;;;;5072956;28;20508;-67
2021/03/09 12:47:28;;;;;;;20.17;14.27;;;8.30;93.40;;;;;;5073677;28;20425;-67
2021/03/09 12:49:55;;;;;;;21.10;15.23;;;8.30;95.20;;;;;;5074264;28;20531;-67